createdAt,value
2023-06-30T00:00:23.707Z,8.65
2023-06-30T00:02:50.852Z,6.82
2023-06-30T00:05:17.936Z,5.40
2023-06-30T00:07:45.346Z,6.30
2023-06-30T00:10:12.372Z,7.32
2023-06-30T00:12:39.740Z,9.55
2023-06-30T00:15:07.124Z,4.75
2023-06-30T00:17:34.247Z,6.15
2023-06-30T00:20:06.804Z,5.32
2023-06-30T00:22:37.683Z,8.02
2023-06-30T00:25:05.865Z,11.32
2023-06-30T00:27:32.855Z,12.05
2023-06-30T00:29:59.884Z,16.23
2023-06-30T00:32:32.706Z,9.27
2023-06-30T00:35:00.168Z,12.13
2023-06-30T00:37:27.697Z,15.77
2023-06-30T00:39:54.654Z,9.98
2023-06-30T00:42:21.592Z,11.15
2023-06-30T00:44:48.563Z,8.98
2023-06-30T00:47:15.567Z,8.60
2023-06-30T00:49:42.960Z,15.80
2023-06-30T00:52:10.070Z,12.57
2023-06-30T00:54:37.606Z,10.77
2023-06-30T00:57:07.627Z,11.25
2023-06-30T00:59:35.092Z,8.85
2023-06-30T01:02:08.916Z,12.70
2023-06-30T01:04:59.499Z,12.13
2023-06-30T01:07:35.447Z,10.20
2023-06-30T01:10:09.618Z,14.93
2023-06-30T01:12:37.301Z,9.45
2023-06-30T01:15:05.960Z,11.85
2023-06-30T01:17:35.106Z,9.50
2023-06-30T01:20:05.765Z,11.70
2023-06-30T01:22:42.415Z,9.38
2023-06-30T01:25:18.289Z,8.70
2023-06-30T01:27:45.596Z,9.50
2023-06-30T01:30:13.034Z,11.23
2023-06-30T01:32:40.455Z,5.78
2023-06-30T01:35:07.674Z,15.25
2023-06-30T01:37:34.738Z,9.05
2023-06-30T01:40:01.933Z,8.98
2023-06-30T01:42:29.827Z,14.02
2023-06-30T01:44:57.288Z,13.80
2023-06-30T01:47:25.265Z,18.90
2023-06-30T01:49:52.618Z,14.82
2023-06-30T01:52:19.648Z,18.77
2023-06-30T01:54:46.574Z,18.25
2023-06-30T01:57:13.595Z,16.80
2023-06-30T01:59:40.492Z,17.58
2023-06-30T02:02:07.720Z,11.02
2023-06-30T02:04:35.403Z,15.65
2023-06-30T02:07:02.470Z,14.90
2023-06-30T02:09:38.789Z,15.13
2023-06-30T02:12:13.998Z,12.55
2023-06-30T02:14:41.378Z,20.35
2023-06-30T02:17:11.404Z,15.07
2023-06-30T02:19:38.542Z,13.77
2023-06-30T02:22:06.052Z,14.45
2023-06-30T02:24:33.096Z,14.95
2023-06-30T02:26:59.979Z,13.68
2023-06-30T02:29:27.121Z,13.48
2023-06-30T02:31:54.051Z,14.13
2023-06-30T02:34:22.334Z,17.10
2023-06-30T02:36:49.860Z,14.50
2023-06-30T02:39:17.685Z,15.98
2023-06-30T02:41:44.665Z,12.48
2023-06-30T02:44:13.165Z,10.88
2023-06-30T02:46:40.062Z,11.18
2023-06-30T02:49:07.093Z,12.20
2023-06-30T02:51:34.276Z,10.02
2023-06-30T02:54:01.283Z,11.98
2023-06-30T02:56:28.569Z,9.25
2023-06-30T02:58:57.703Z,12.35
2023-06-30T03:01:26.006Z,12.43
2023-06-30T03:03:53.642Z,10.68
2023-06-30T03:06:24.795Z,9.55
2023-06-30T03:08:51.840Z,9.55
2023-06-30T03:11:20.749Z,12.88
2023-06-30T03:13:47.748Z,12.82
2023-06-30T03:16:15.260Z,14.88
2023-06-30T03:18:42.237Z,17.38
2023-06-30T03:21:09.151Z,12.05
2023-06-30T03:23:36.386Z,11.88
2023-06-30T03:26:03.732Z,17.58
2023-06-30T03:28:30.767Z,9.57
2023-06-30T03:30:58.024Z,12.10
2023-06-30T03:33:25.141Z,10.15
2023-06-30T03:35:52.696Z,9.82
2023-06-30T03:38:19.666Z,9.20
2023-06-30T03:40:46.645Z,13.55
2023-06-30T03:43:13.834Z,11.32
2023-06-30T03:45:40.927Z,14.52
2023-06-30T03:48:08.002Z,11.13
2023-06-30T03:50:34.940Z,12.05
2023-06-30T03:53:01.995Z,11.55
2023-06-30T03:55:29.069Z,8.40
2023-06-30T03:57:56.024Z,12.23
2023-06-30T04:00:23.009Z,10.63
2023-06-30T04:02:50.093Z,12.07
2023-06-30T04:05:17.191Z,8.52
2023-06-30T04:07:44.320Z,9.70
2023-06-30T04:10:11.872Z,10.95
2023-06-30T04:12:38.881Z,11.68
2023-06-30T04:15:08.757Z,10.82
2023-06-30T04:17:35.855Z,11.25
2023-06-30T04:20:04.781Z,11.70
2023-06-30T04:22:31.761Z,15.50
2023-06-30T04:24:58.645Z,13.05
2023-06-30T04:27:25.982Z,10.00
2023-06-30T04:29:53.058Z,10.85
2023-06-30T04:32:20.049Z,10.45
2023-06-30T04:34:47.126Z,11.90
2023-06-30T04:37:14.532Z,12.07
2023-06-30T04:39:43.229Z,11.27
2023-06-30T04:42:10.267Z,14.27
2023-06-30T04:44:38.540Z,9.43
2023-06-30T04:47:05.724Z,14.05
2023-06-30T04:49:32.702Z,13.85
2023-06-30T04:51:59.850Z,9.85
2023-06-30T04:54:26.729Z,10.60
2023-06-30T04:56:53.687Z,9.32
2023-06-30T04:59:20.581Z,10.60
2023-06-30T05:01:47.592Z,5.80
2023-06-30T05:04:15.324Z,7.38
2023-06-30T05:06:42.259Z,4.82
2023-06-30T05:09:09.134Z,7.10
2023-06-30T05:11:36.235Z,7.60
2023-06-30T05:14:03.163Z,6.70
2023-06-30T05:16:31.430Z,5.50
2023-06-30T05:19:00.861Z,5.40
2023-06-30T05:21:27.771Z,7.70
2023-06-30T05:23:54.820Z,7.93
2023-06-30T05:26:21.844Z,7.88
2023-06-30T05:29:00.446Z,6.95
2023-06-30T05:31:31.238Z,6.63
2023-06-30T05:33:58.255Z,6.20
2023-06-30T05:36:25.304Z,4.88
2023-06-30T05:38:52.464Z,8.50
2023-06-30T05:41:19.449Z,6.38
2023-06-30T05:43:46.325Z,5.25
2023-06-30T05:46:13.443Z,4.20
2023-06-30T05:48:40.379Z,8.13
2023-06-30T05:51:07.356Z,7.45
2023-06-30T05:53:34.500Z,13.18
2023-06-30T05:56:01.477Z,8.70
2023-06-30T05:58:28.358Z,6.38
2023-06-30T06:00:55.333Z,7.03
2023-06-30T06:03:22.632Z,5.57
2023-06-30T06:05:50.084Z,5.93
2023-06-30T06:08:17.363Z,9.40
2023-06-30T06:10:46.477Z,6.18
2023-06-30T06:13:13.512Z,6.18
2023-06-30T06:15:40.679Z,8.18
2023-06-30T06:18:07.624Z,7.80
2023-06-30T06:20:34.631Z,7.55
2023-06-30T06:23:01.536Z,11.07
2023-06-30T06:25:28.476Z,7.18
2023-06-30T06:27:55.340Z,5.60
2023-06-30T06:30:22.553Z,11.68
2023-06-30T06:32:49.478Z,6.20
2023-06-30T06:35:16.480Z,5.50
2023-06-30T06:37:43.476Z,6.38
2023-06-30T06:40:11.182Z,5.43
2023-06-30T06:42:38.107Z,11.05
2023-06-30T06:45:05.604Z,3.55
2023-06-30T06:48:10.106Z,7.93
2023-06-30T06:50:37.121Z,9.02
2023-06-30T06:53:03.992Z,5.47
2023-06-30T06:55:30.903Z,11.18
2023-06-30T06:57:57.837Z,4.43
2023-06-30T07:00:24.905Z,5.97
2023-06-30T07:02:53.177Z,7.07
2023-06-30T07:05:20.457Z,7.13
2023-06-30T07:07:47.415Z,4.35
2023-06-30T07:10:14.446Z,6.18
2023-06-30T07:12:41.469Z,3.97
2023-06-30T07:15:08.873Z,6.57
2023-06-30T07:17:36.135Z,5.18
2023-06-30T07:20:03.303Z,6.05
2023-06-30T07:22:30.217Z,11.52
2023-06-30T07:24:57.149Z,7.97
2023-06-30T07:27:24.043Z,5.50
2023-06-30T07:29:51.843Z,6.65
2023-06-30T07:32:18.767Z,5.95
2023-06-30T07:34:45.909Z,3.85
2023-06-30T07:37:12.800Z,3.33
2023-06-30T07:39:39.781Z,4.35
2023-06-30T07:42:06.993Z,4.47
2023-06-30T07:44:34.781Z,5.15
2023-06-30T07:47:01.764Z,5.72
2023-06-30T07:49:28.714Z,4.93
2023-06-30T07:51:55.577Z,6.22
2023-06-30T07:54:22.562Z,6.05
2023-06-30T07:56:49.496Z,4.30
2023-06-30T07:59:16.532Z,4.03
2023-06-30T08:01:43.389Z,4.90
2023-06-30T08:04:10.648Z,4.38
2023-06-30T08:06:37.698Z,3.28
2023-06-30T08:09:04.714Z,7.38
2023-06-30T08:11:32.042Z,5.78
2023-06-30T08:14:01.052Z,4.22
2023-06-30T08:16:28.217Z,4.22
2023-06-30T08:18:55.473Z,9.25
2023-06-30T08:21:23.040Z,5.70
2023-06-30T08:23:50.502Z,7.80
2023-06-30T08:26:17.604Z,5.88
2023-06-30T08:28:44.558Z,6.10
2023-06-30T08:31:11.635Z,5.72
2023-06-30T08:33:40.841Z,3.92
2023-06-30T08:36:08.836Z,10.00
2023-06-30T08:38:35.742Z,7.28
2023-06-30T08:41:04.357Z,9.45
2023-06-30T08:43:33.067Z,7.97
2023-06-30T08:46:02.821Z,11.93
2023-06-30T08:48:31.621Z,9.23
2023-06-30T08:51:00.389Z,6.13
2023-06-30T08:53:30.038Z,7.22
2023-06-30T08:56:00.539Z,6.65
2023-06-30T08:58:30.991Z,5.80
2023-06-30T09:00:58.162Z,7.65
2023-06-30T09:03:25.707Z,12.00
2023-06-30T09:05:56.809Z,7.22
2023-06-30T09:08:25.200Z,8.85
2023-06-30T09:10:53.150Z,7.20
2023-06-30T09:13:23.888Z,13.43
2023-06-30T09:15:51.337Z,5.38
2023-06-30T09:18:18.673Z,4.07
2023-06-30T09:20:45.720Z,5.55
2023-06-30T09:23:14.027Z,5.28
2023-06-30T09:25:41.840Z,8.02
2023-06-30T09:28:12.351Z,12.60
2023-06-30T09:30:43.591Z,3.97
2023-06-30T09:33:13.523Z,5.80
2023-06-30T09:35:43.608Z,7.53
2023-06-30T09:38:15.283Z,5.38
2023-06-30T09:40:46.750Z,3.83
2023-06-30T09:43:21.685Z,5.55
2023-06-30T09:45:59.273Z,3.78
2023-06-30T09:48:44.954Z,6.05
2023-06-30T09:51:14.084Z,6.70
2023-06-30T09:53:42.545Z,6.45
2023-06-30T09:56:09.960Z,5.13
2023-06-30T09:58:40.264Z,6.72
2023-06-30T10:01:09.174Z,6.63
2023-06-30T10:03:50.502Z,8.35
2023-06-30T10:06:24.088Z,7.53
2023-06-30T10:08:55.379Z,9.65
2023-06-30T10:11:23.687Z,11.88
2023-06-30T10:13:58.935Z,6.72
2023-06-30T10:18:55.531Z,6.97
2023-06-30T10:21:22.704Z,9.18
2023-06-30T10:23:51.749Z,7.40
2023-06-30T10:26:22.926Z,9.18
2023-06-30T10:28:50.194Z,5.78
2023-06-30T10:31:18.141Z,7.63
2023-06-30T10:33:45.386Z,5.43
2023-06-30T10:36:14.669Z,8.02
2023-06-30T10:38:44.405Z,9.02
2023-06-30T10:41:18.768Z,8.85
2023-06-30T10:44:04.656Z,7.72
2023-06-30T10:46:56.842Z,6.75
2023-06-30T10:49:33.304Z,7.10
2023-06-30T10:52:24.858Z,13.68
2023-06-30T10:54:52.126Z,10.85
2023-06-30T10:57:20.761Z,9.80
2023-06-30T10:59:49.767Z,9.68
2023-06-30T11:02:19.699Z,14.40
2023-06-30T11:04:48.003Z,15.15
2023-06-30T11:07:33.493Z,16.23
2023-06-30T11:10:04.490Z,9.88
2023-06-30T11:12:54.860Z,17.48
2023-06-30T11:15:45.806Z,12.30
2023-06-30T11:18:24.206Z,12.40
2023-06-30T11:21:07.503Z,13.65
2023-06-30T11:23:39.916Z,11.68
2023-06-30T11:26:15.571Z,21.10
2023-06-30T11:28:44.431Z,16.65
2023-06-30T11:31:14.203Z,17.10
2023-06-30T11:33:45.694Z,13.77
2023-06-30T11:36:17.606Z,20.45
2023-06-30T11:38:49.062Z,17.27
2023-06-30T11:41:22.973Z,24.10
2023-06-30T11:43:57.356Z,24.55
2023-06-30T11:46:24.775Z,11.98
2023-06-30T11:48:52.118Z,16.30
2023-06-30T11:51:19.434Z,11.48
2023-06-30T11:53:50.420Z,12.50
2023-06-30T11:56:21.225Z,11.48
2023-06-30T11:58:52.072Z,16.55
2023-06-30T12:01:21.330Z,11.20
2023-06-30T12:04:14.405Z,16.33
2023-06-30T12:06:44.733Z,14.20
2023-06-30T12:09:11.757Z,12.18
2023-06-30T12:11:51.224Z,13.02
2023-06-30T12:14:19.639Z,16.25
2023-06-30T12:16:51.234Z,12.70
2023-06-30T12:19:23.630Z,12.48
2023-06-30T12:21:55.657Z,8.82
2023-06-30T12:24:23.634Z,9.55
2023-06-30T12:26:52.178Z,8.60
2023-06-30T12:29:19.841Z,6.95
2023-06-30T12:31:48.410Z,8.75
2023-06-30T12:34:35.884Z,5.30
2023-06-30T12:37:04.013Z,6.28
2023-06-30T12:39:31.121Z,9.88
2023-06-30T12:41:58.155Z,10.98
2023-06-30T12:44:25.198Z,6.95
2023-06-30T12:47:07.249Z,11.60
2023-06-30T12:49:37.891Z,9.23
2023-06-30T12:52:05.774Z,7.45
2023-06-30T12:54:32.812Z,8.85
2023-06-30T12:56:59.970Z,9.40
2023-06-30T12:59:26.887Z,15.02
2023-06-30T13:01:54.001Z,9.50
2023-06-30T13:04:21.009Z,14.82
2023-06-30T13:06:48.189Z,10.55
2023-06-30T13:09:15.193Z,12.77
2023-06-30T13:11:42.870Z,19.50
2023-06-30T13:14:10.015Z,15.05
2023-06-30T13:16:37.685Z,10.68
2023-06-30T13:19:05.103Z,18.45
2023-06-30T13:21:32.110Z,18.27
2023-06-30T13:23:59.043Z,11.98
2023-06-30T13:26:26.093Z,17.70
2023-06-30T13:28:53.037Z,17.60
2023-06-30T13:31:20.070Z,14.85
2023-06-30T13:33:46.959Z,23.17
2023-06-30T13:36:15.459Z,25.25
2023-06-30T13:38:45.293Z,23.10
2023-06-30T13:41:12.361Z,22.77
2023-06-30T13:43:39.386Z,24.95
2023-06-30T13:46:06.949Z,25.95
2023-06-30T13:48:34.043Z,23.27
2023-06-30T13:51:01.070Z,30.35
2023-06-30T13:53:28.081Z,16.67
2023-06-30T13:55:57.572Z,14.07
2023-06-30T13:58:24.430Z,18.00
2023-06-30T14:00:51.468Z,17.20
2023-06-30T14:03:18.856Z,26.10
2023-06-30T14:05:50.189Z,30.38
2023-06-30T14:08:17.791Z,22.35
2023-06-30T14:10:44.882Z,32.63
2023-06-30T14:13:12.036Z,34.72
2023-06-30T14:15:38.962Z,25.30
2023-06-30T14:18:06.240Z,30.90
2023-06-30T14:20:33.366Z,21.30
2023-06-30T14:23:00.330Z,13.85
2023-06-30T14:25:28.099Z,16.77
2023-06-30T14:27:56.569Z,14.23
2023-06-30T14:30:29.520Z,23.25
2023-06-30T14:32:56.894Z,29.50
2023-06-30T14:35:23.923Z,14.93
2023-06-30T14:37:50.964Z,17.15
2023-06-30T14:40:17.867Z,24.27
2023-06-30T14:42:44.904Z,27.65
2023-06-30T14:45:12.698Z,17.23
2023-06-30T14:47:41.964Z,17.45
2023-06-30T14:50:09.184Z,19.63
2023-06-30T14:52:36.248Z,13.85
2023-06-30T14:55:04.437Z,24.23
2023-06-30T14:57:31.439Z,16.83
2023-06-30T14:59:58.380Z,19.38
2023-06-30T15:02:25.502Z,13.75
2023-06-30T15:04:52.542Z,16.63
2023-06-30T15:07:19.604Z,13.75
2023-06-30T15:09:46.567Z,15.95
2023-06-30T15:12:13.550Z,11.93
2023-06-30T15:14:40.542Z,14.10
2023-06-30T15:17:07.474Z,17.35
2023-06-30T15:19:34.418Z,11.13
2023-06-30T15:22:01.475Z,15.20
2023-06-30T15:24:28.409Z,15.15
2023-06-30T15:26:55.346Z,12.40
2023-06-30T15:29:22.382Z,15.88
2023-06-30T15:31:50.033Z,12.40
2023-06-30T15:34:17.866Z,15.52
2023-06-30T15:36:44.848Z,12.45
2023-06-30T15:39:11.802Z,11.75
2023-06-30T15:41:38.772Z,11.50
2023-06-30T15:44:05.850Z,11.18
2023-06-30T15:46:32.855Z,9.45
2023-06-30T15:48:59.817Z,10.50
2023-06-30T15:51:26.905Z,13.73
2023-06-30T15:53:53.852Z,8.60
2023-06-30T15:56:22.931Z,10.35
2023-06-30T15:58:49.925Z,14.80
2023-06-30T16:01:18.289Z,10.35
2023-06-30T16:03:45.345Z,7.95
2023-06-30T16:06:12.418Z,14.68
2023-06-30T16:08:39.354Z,10.43
2023-06-30T16:11:06.460Z,13.27
2023-06-30T16:13:33.488Z,12.95
2023-06-30T16:16:00.552Z,10.48
2023-06-30T16:18:27.464Z,14.55
2023-06-30T16:20:54.403Z,10.00
2023-06-30T16:23:21.644Z,8.95
2023-06-30T16:25:49.181Z,18.98
2023-06-30T16:28:16.761Z,11.52
2023-06-30T16:30:43.835Z,16.55
2023-06-30T16:33:11.044Z,11.10
2023-06-30T16:35:38.283Z,11.57
2023-06-30T16:38:06.768Z,7.22
2023-06-30T16:40:33.957Z,5.68
2023-06-30T16:43:00.925Z,10.05
2023-06-30T16:45:28.036Z,6.93
2023-06-30T16:47:55.345Z,6.63
2023-06-30T16:50:22.528Z,6.60
2023-06-30T16:52:50.287Z,10.48
2023-06-30T16:55:17.501Z,10.18
2023-06-30T16:57:44.878Z,6.93
2023-06-30T17:00:12.604Z,7.60
2023-06-30T17:02:39.602Z,8.50
2023-06-30T17:05:07.843Z,5.20
2023-06-30T17:07:35.541Z,6.75
2023-06-30T17:10:02.855Z,9.70
2023-06-30T17:12:29.773Z,5.00
2023-06-30T17:14:56.824Z,7.07
2023-06-30T17:17:26.050Z,8.10
2023-06-30T17:19:53.544Z,5.95
2023-06-30T17:22:20.531Z,11.00
2023-06-30T17:24:47.600Z,9.77
2023-06-30T17:27:14.571Z,7.93
2023-06-30T17:29:41.676Z,11.02
2023-06-30T17:32:09.005Z,13.15
2023-06-30T17:34:36.082Z,8.05
2023-06-30T17:37:08.086Z,15.82
2023-06-30T17:39:35.887Z,9.82
2023-06-30T17:42:02.829Z,7.38
2023-06-30T17:44:31.289Z,8.52
2023-06-30T17:46:59.226Z,7.65
2023-06-30T17:49:34.834Z,8.35
2023-06-30T17:52:02.918Z,9.93
2023-06-30T17:54:30.962Z,8.70
2023-06-30T17:56:58.207Z,7.55
2023-06-30T17:59:27.008Z,8.43
2023-06-30T18:01:53.992Z,10.70
2023-06-30T18:04:21.020Z,8.95
2023-06-30T18:07:11.741Z,13.93
2023-06-30T18:09:43.927Z,8.55
2023-06-30T18:12:11.845Z,13.77
2023-06-30T18:14:39.451Z,10.13
2023-06-30T18:17:06.626Z,7.53
2023-06-30T18:19:34.067Z,5.90
2023-06-30T18:22:01.358Z,14.05
2023-06-30T18:24:28.279Z,13.20
2023-06-30T18:26:55.444Z,6.43
2023-06-30T18:29:24.688Z,13.38
2023-06-30T18:31:53.590Z,7.43
2023-06-30T18:34:21.734Z,10.05
2023-06-30T18:36:48.922Z,13.68
2023-06-30T18:39:19.261Z,10.18
2023-06-30T18:41:46.285Z,11.63
2023-06-30T18:44:13.210Z,9.90
2023-06-30T18:46:40.277Z,9.32
2023-06-30T18:49:10.821Z,10.32
2023-06-30T18:51:40.049Z,7.50
2023-06-30T18:54:07.106Z,7.13
2023-06-30T18:56:34.091Z,8.52
2023-06-30T18:59:02.519Z,8.25
2023-06-30T19:01:30.149Z,8.73
2023-06-30T19:03:57.531Z,5.00
2023-06-30T19:06:25.778Z,8.55
2023-06-30T19:08:54.645Z,5.30
2023-06-30T19:11:22.686Z,6.03
2023-06-30T19:13:50.378Z,7.78
2023-06-30T19:16:17.932Z,10.70
2023-06-30T19:18:45.433Z,7.07
2023-06-30T19:21:12.433Z,5.25
2023-06-30T19:23:41.727Z,5.38
2023-06-30T19:26:09.954Z,11.13
2023-06-30T19:28:38.944Z,9.95
2023-06-30T19:31:06.007Z,7.63
2023-06-30T19:33:35.300Z,4.50
2023-06-30T19:36:02.482Z,5.82
2023-06-30T19:38:29.724Z,9.13
2023-06-30T19:40:57.062Z,6.82
2023-06-30T19:43:24.150Z,12.52
2023-06-30T19:45:51.132Z,8.02
2023-06-30T19:48:20.059Z,8.05
2023-06-30T19:50:47.550Z,7.82
2023-06-30T19:53:14.887Z,9.10
2023-06-30T19:55:41.880Z,8.82
2023-06-30T19:58:10.623Z,6.00
2023-06-30T20:00:38.537Z,6.70
2023-06-30T20:03:05.769Z,6.90
2023-06-30T20:05:32.774Z,6.30
2023-06-30T20:07:59.717Z,6.97
2023-06-30T20:10:26.759Z,7.47
2023-06-30T20:12:54.225Z,5.25
2023-06-30T20:15:21.190Z,6.45
2023-06-30T20:17:48.261Z,5.10
2023-06-30T20:20:15.582Z,8.32
2023-06-30T20:22:43.135Z,10.85
2023-06-30T20:25:11.153Z,14.80
2023-06-30T20:27:39.583Z,9.20
2023-06-30T20:30:08.920Z,9.75
2023-06-30T20:32:36.173Z,6.53
2023-06-30T20:35:03.256Z,5.90
2023-06-30T20:37:30.210Z,4.78
2023-06-30T20:39:57.463Z,6.13
2023-06-30T20:42:24.771Z,7.97
2023-06-30T20:44:51.850Z,5.90
2023-06-30T20:47:19.108Z,6.28
2023-06-30T20:49:46.190Z,5.00
2023-06-30T20:52:13.124Z,8.20
2023-06-30T20:54:40.331Z,8.68
2023-06-30T20:57:07.581Z,7.15
2023-06-30T20:59:35.651Z,6.78
2023-06-30T21:02:03.088Z,6.15
2023-06-30T21:04:30.733Z,6.30
2023-06-30T21:06:57.671Z,10.15
2023-06-30T21:09:24.748Z,11.48
2023-06-30T21:11:51.665Z,5.32
2023-06-30T21:14:21.390Z,6.95
2023-06-30T21:16:48.808Z,6.65
2023-06-30T21:19:15.896Z,8.20
2023-06-30T21:21:43.190Z,5.20
2023-06-30T21:24:10.586Z,5.90
2023-06-30T21:26:43.118Z,8.95
2023-06-30T21:29:12.436Z,7.30
2023-06-30T21:31:39.570Z,7.13
2023-06-30T21:34:06.740Z,5.32
2023-06-30T21:36:36.489Z,5.85
2023-06-30T21:39:05.670Z,5.05
2023-06-30T21:41:32.630Z,5.00
2023-06-30T21:43:59.751Z,7.47
2023-06-30T21:46:26.669Z,7.30
2023-06-30T21:48:53.995Z,4.20
2023-06-30T21:51:21.049Z,4.32
2023-06-30T21:53:48.104Z,4.47
2023-06-30T21:56:15.032Z,5.38
2023-06-30T21:58:41.965Z,6.28
2023-06-30T22:01:08.985Z,4.40
2023-06-30T22:03:36.224Z,4.10
2023-06-30T22:06:03.910Z,5.78
2023-06-30T22:08:30.845Z,6.60
2023-06-30T22:10:58.821Z,3.92
2023-06-30T22:13:26.083Z,4.88
2023-06-30T22:15:53.204Z,5.22
2023-06-30T22:18:20.351Z,8.68
2023-06-30T22:20:47.642Z,5.88
2023-06-30T22:23:14.961Z,5.88
2023-06-30T22:25:41.861Z,6.47
2023-06-30T22:28:08.849Z,6.93
2023-06-30T22:30:35.779Z,6.53
2023-06-30T22:33:04.232Z,10.90
2023-06-30T22:35:31.298Z,7.57
2023-06-30T22:37:58.274Z,10.00
2023-06-30T22:40:25.143Z,10.65
2023-06-30T22:42:52.188Z,9.77
2023-06-30T22:45:19.126Z,9.88
2023-06-30T22:47:46.142Z,6.75
2023-06-30T22:50:13.178Z,8.60
2023-06-30T22:52:40.167Z,9.35
2023-06-30T22:55:10.499Z,10.30
2023-06-30T22:57:37.786Z,6.50
2023-06-30T23:00:06.812Z,8.00
2023-06-30T23:02:33.858Z,9.88
2023-06-30T23:05:01.453Z,11.35
2023-06-30T23:07:28.501Z,10.48
2023-06-30T23:09:55.427Z,7.50
2023-06-30T23:12:22.443Z,8.70
2023-06-30T23:14:49.325Z,8.77
2023-06-30T23:17:17.209Z,7.95
2023-06-30T23:19:51.415Z,9.50
2023-06-30T23:22:19.411Z,11.82
2023-06-30T23:24:48.050Z,9.27
2023-06-30T23:27:19.610Z,9.68
2023-06-30T23:29:50.079Z,9.57
2023-06-30T23:32:21.451Z,6.38
2023-06-30T23:34:49.039Z,8.35
2023-06-30T23:37:18.174Z,7.03
2023-06-30T23:39:48.410Z,7.82
2023-06-30T23:42:15.610Z,9.30
2023-06-30T23:44:42.704Z,10.57
2023-06-30T23:47:17.586Z,10.07
2023-06-30T23:49:46.420Z,8.60
2023-06-30T23:52:13.311Z,9.95
2023-06-30T23:54:40.367Z,8.35
2023-06-30T23:57:07.288Z,8.93
2023-06-30T23:59:34.339Z,11.18
